China Lake, CA

3:43 PM PDT on August 28, 2015 (GMT -0700)
Tower8 China Lake | | Change Station
CLOSE
Current Station
Personal Weather Station
Location: China Lake, CA
Elevation: 2184 ft
Nearby Weather Stations

Elev 2184 ft 35.76 °N, 117.68 °W | Updated 26 seconds ago

Clear
Clear
105.0 °F
Feels Like 105.0 °F
N
10.0
Wind Variable Wind from SSE
Gusts 16.0 mph

Today
High -- | Low -- °F
--% Chance of Precip.
Yesterday
High -- | Low -- °F
Precip. -- in
6:19 AM 7:23 PM
Waxing Gibbous, 99% visible
Pressure 29.82 in
Visibility 10.0 miles
Clouds Clear
Dew Point --
Humidity 16%
Rainfall Not available.
Snow Depth Not available.
UV 8 out of 12
Pollen 8.10 out of 12
Air Quality Not available.
Flu Activity Not available.
METAR KNID 282156Z AUTO 16012G16KT 10SM CLR 40/07 A2990 RMK AO2 SLP097 T04000072 $
Pressure 29.82 in
Visibility 10.0 miles
Clouds Clear
Dew Point --
Humidity 16%
Rainfall Not available.
Snow Depth Not available.
UV 8 out of 12
Pollen 8.10 out of 12
Air Quality Not available.
Flu Activity Not available.
METAR KNID 282156Z AUTO 16012G16KT 10SM CLR 40/07 A2990 RMK AO2 SLP097 T04000072 $

10-Day Weather Forecast

×

Almanac

Astronomy

Aug. 28, 2015 Rise Set
Actual Time
Civil Twilight
Nautical Twilight
Astronomical Twilight
Moon
Length of Visible Light
Length of Day
Tomorrow will be .
, % of the Moon is Illuminated

Today's Extremes

State Highs State Lows

Community

WunderPhotos

Upload Photos

1,850,516 photos uploaded!

WunderBlogs® & News

Nearby

Air Quality

  Air Quality AQ Index Pollutant
Not available.

Snow Depth

Station Depth Elevation

Earthquake Activity

City Distance Mag. Time & Date
Minimum magnitude displayed is 2.5.

Coastal Water Temperatures

Place Temperature

Stations

Nearby Weather Stations

Station Location Temp. Windchill Dew Point Humidity Wind Precip. Elev Updated Type